createdAt,value
2023-05-20T00:01:07.569Z,76.28
2023-05-20T00:03:37.106Z,76.26
2023-05-20T00:06:06.528Z,76.16
2023-05-20T00:08:35.927Z,76.43
2023-05-20T00:11:05.115Z,76.31
2023-05-20T00:13:36.458Z,76.56
2023-05-20T00:16:06.762Z,76.28
2023-05-20T00:18:37.125Z,75.82
2023-05-20T00:21:06.212Z,75.68
2023-05-20T00:23:35.756Z,76.10
2023-05-20T00:26:05.066Z,75.92
2023-05-20T00:28:34.520Z,75.76
2023-05-20T00:31:03.572Z,75.70
2023-05-20T00:33:32.828Z,75.69
2023-05-20T00:36:01.812Z,75.76
2023-05-20T00:38:30.959Z,75.48
2023-05-20T00:41:00.581Z,75.38
2023-05-20T00:43:30.711Z,75.25
2023-05-20T00:46:00.929Z,75.59
2023-05-20T00:48:40.902Z,75.91
2023-05-20T00:51:11.404Z,75.94
2023-05-20T00:53:40.933Z,75.59
2023-05-20T00:56:10.403Z,75.15
2023-05-20T00:58:40.877Z,75.16
2023-05-20T01:01:09.927Z,75.08
2023-05-20T01:03:39.556Z,75.29
2023-05-20T01:06:09.150Z,74.82
2023-05-20T01:08:39.038Z,74.60
2023-05-20T01:11:26.580Z,74.69
2023-05-20T01:14:01.934Z,75.21
2023-05-20T01:16:34.497Z,75.12
2023-05-20T01:19:08.937Z,75.14
2023-05-20T01:21:40.064Z,75.17
2023-05-20T01:24:09.264Z,75.47
2023-05-20T01:26:39.121Z,75.40
2023-05-20T01:29:08.462Z,75.46
2023-05-20T01:31:39.244Z,75.40
2023-05-20T01:34:08.521Z,75.41
2023-05-20T01:36:39.961Z,75.62
2023-05-20T01:39:10.278Z,75.64
2023-05-20T01:41:40.359Z,75.69
2023-05-20T01:44:10.500Z,75.25
2023-05-20T01:46:39.454Z,75.14
2023-05-20T01:49:08.519Z,75.39
2023-05-20T01:51:38.617Z,75.82
2023-05-20T01:54:07.510Z,75.71
2023-05-20T01:56:37.010Z,75.58
2023-05-20T01:59:05.955Z,75.66
2023-05-20T02:01:34.941Z,75.87
2023-05-20T02:04:03.690Z,76.27
2023-05-20T02:06:33.028Z,76.11
2023-05-20T02:09:02.963Z,76.02
2023-05-20T02:11:32.248Z,75.71
2023-05-20T02:14:01.484Z,75.61
2023-05-20T02:16:30.766Z,75.90
2023-05-20T02:19:00.139Z,75.72
2023-05-20T02:21:29.110Z,75.53
2023-05-20T02:23:58.487Z,75.21
2023-05-20T02:26:27.646Z,75.43
2023-05-20T02:28:56.563Z,75.64
2023-05-20T02:31:25.745Z,75.94
2023-05-20T02:33:54.767Z,75.89
2023-05-20T02:36:24.562Z,75.71
2023-05-20T02:38:57.292Z,75.81
2023-05-20T02:41:26.566Z,76.10
2023-05-20T02:43:56.054Z,76.32
2023-05-20T02:46:24.906Z,76.48
2023-05-20T02:48:53.988Z,76.58
2023-05-20T02:51:23.262Z,76.72
2023-05-20T02:53:52.604Z,76.33
2023-05-20T02:56:21.967Z,76.53
2023-05-20T02:58:51.390Z,76.54
2023-05-20T03:01:20.365Z,76.80
2023-05-20T03:03:49.289Z,76.73
2023-05-20T03:06:17.952Z,77.05
2023-05-20T03:08:46.951Z,77.10
2023-05-20T03:11:16.512Z,77.42
2023-05-20T03:13:45.386Z,77.63
2023-05-20T03:16:14.128Z,77.69
2023-05-20T03:18:43.530Z,77.72
2023-05-20T03:21:12.435Z,77.92
2023-05-20T03:23:41.558Z,77.72
2023-05-20T03:26:11.045Z,77.73
2023-05-20T03:28:39.988Z,77.69
2023-05-20T03:31:09.623Z,77.85
2023-05-20T03:33:38.830Z,77.93
2023-05-20T03:36:08.569Z,77.75
2023-05-20T03:38:37.238Z,77.72
2023-05-20T03:41:06.295Z,77.42
2023-05-20T03:43:35.025Z,77.31
2023-05-20T03:46:03.937Z,77.19
2023-05-20T03:48:32.847Z,77.44
2023-05-20T03:51:02.504Z,77.42
2023-05-20T03:53:31.955Z,77.19
2023-05-20T03:56:02.006Z,76.61
2023-05-20T03:58:31.833Z,76.56
2023-05-20T04:01:00.813Z,76.73
2023-05-20T04:03:30.685Z,76.68
2023-05-20T04:05:59.833Z,76.32
2023-05-20T04:08:29.456Z,75.95
2023-05-20T04:10:58.978Z,75.88
2023-05-20T04:13:28.165Z,75.66
2023-05-20T04:15:57.172Z,75.75
2023-05-20T04:18:26.534Z,75.63
2023-05-20T04:21:02.571Z,75.41
2023-05-20T04:23:31.980Z,75.49
2023-05-20T04:26:02.936Z,75.83
2023-05-20T04:28:31.748Z,76.01
2023-05-20T04:31:05.694Z,75.81
2023-05-20T04:33:40.274Z,75.88
2023-05-20T04:36:12.673Z,76.27
2023-05-20T04:38:42.900Z,76.51
2023-05-20T04:41:12.249Z,76.69
2023-05-20T04:43:41.105Z,76.48
2023-05-20T04:46:10.278Z,76.05
2023-05-20T04:48:39.345Z,75.53
2023-05-20T04:51:09.198Z,75.48
2023-05-20T04:53:38.464Z,75.66
2023-05-20T04:56:08.800Z,75.43
2023-05-20T04:58:38.721Z,75.30
2023-05-20T05:01:07.812Z,75.16
2023-05-20T05:03:37.014Z,75.01
2023-05-20T05:06:07.084Z,75.23
2023-05-20T05:08:36.082Z,75.40
2023-05-20T05:11:07.380Z,75.25
2023-05-20T05:13:36.492Z,74.73
2023-05-20T05:16:06.080Z,74.77
2023-05-20T05:18:35.630Z,75.00
2023-05-20T05:21:06.047Z,75.02
2023-05-20T05:23:35.309Z,74.90
2023-05-20T05:26:04.264Z,74.93
2023-05-20T05:28:33.522Z,74.59
2023-05-20T05:31:02.743Z,74.46
2023-05-20T05:33:31.915Z,74.38
2023-05-20T05:36:02.338Z,74.15
2023-05-20T05:38:31.846Z,73.98
2023-05-20T05:41:00.773Z,73.61
2023-05-20T05:43:30.422Z,73.71
2023-05-20T05:45:59.669Z,73.92
2023-05-20T05:48:29.386Z,73.73
2023-05-20T05:50:59.256Z,73.28
2023-05-20T05:53:28.700Z,72.73
2023-05-20T05:55:57.783Z,72.72
2023-05-20T05:58:27.018Z,72.52
2023-05-20T06:00:56.581Z,72.54
2023-05-20T06:03:26.408Z,72.69
2023-05-20T06:05:56.407Z,73.13
2023-05-20T06:08:25.660Z,73.21
2023-05-20T06:10:55.126Z,72.83
2023-05-20T06:13:24.753Z,72.67
2023-05-20T06:15:55.187Z,72.41
2023-05-20T06:18:24.202Z,72.56
2023-05-20T06:21:00.639Z,72.29
2023-05-20T06:23:29.391Z,71.48
2023-05-20T06:26:00.695Z,71.40
2023-05-20T06:28:30.813Z,71.64
2023-05-20T06:31:00.038Z,71.85
2023-05-20T06:33:30.552Z,71.49
2023-05-20T06:36:02.732Z,71.70
2023-05-20T06:38:32.353Z,71.82
2023-05-20T06:41:01.717Z,71.63
2023-05-20T06:43:31.094Z,71.32
2023-05-20T06:46:00.441Z,71.21
2023-05-20T06:48:29.736Z,70.90
2023-05-20T06:50:59.280Z,71.14
2023-05-20T06:53:28.644Z,71.34
2023-05-20T06:55:58.138Z,71.31
2023-05-20T06:58:28.458Z,71.03
2023-05-20T07:00:58.080Z,71.78
2023-05-20T07:03:27.842Z,71.44
2023-05-20T07:05:57.408Z,71.84
2023-05-20T07:08:26.798Z,71.80
2023-05-20T07:10:57.800Z,71.81
2023-05-20T07:13:27.597Z,72.15
2023-05-20T07:15:57.732Z,72.13
2023-05-20T07:18:27.180Z,72.02
2023-05-20T07:20:57.491Z,72.05
2023-05-20T07:23:26.963Z,71.53
2023-05-20T07:25:56.632Z,71.05
2023-05-20T07:28:28.537Z,70.91
2023-05-20T07:30:58.617Z,70.54
2023-05-20T07:33:28.486Z,70.51
2023-05-20T07:35:58.172Z,70.77
2023-05-20T07:38:27.838Z,70.69
2023-05-20T07:40:57.172Z,71.07
2023-05-20T07:43:26.882Z,71.07
2023-05-20T07:45:56.296Z,70.91
2023-05-20T07:48:25.949Z,70.85
2023-05-20T07:50:57.785Z,70.23
2023-05-20T07:53:27.456Z,69.92
2023-05-20T07:55:57.402Z,69.61
2023-05-20T07:58:26.853Z,69.63
2023-05-20T08:00:56.363Z,69.03
2023-05-20T08:03:25.845Z,68.36
2023-05-20T08:05:55.157Z,68.03
2023-05-20T08:08:25.065Z,67.95
2023-05-20T08:10:54.938Z,67.74
2023-05-20T08:13:26.215Z,67.62
2023-05-20T08:15:55.841Z,67.44
2023-05-20T08:18:24.810Z,67.55
2023-05-20T08:20:54.336Z,66.71
2023-05-20T08:23:24.539Z,66.32
2023-05-20T08:25:53.884Z,65.96
2023-05-20T08:28:24.798Z,65.60
2023-05-20T08:30:54.148Z,65.24
2023-05-20T08:33:24.406Z,64.65
2023-05-20T08:35:54.466Z,64.03
2023-05-20T08:38:24.342Z,63.72
2023-05-20T08:40:58.213Z,63.69
2023-05-20T08:43:28.010Z,63.24
2023-05-20T08:45:57.148Z,62.88
2023-05-20T08:48:30.305Z,61.66
2023-05-20T08:51:01.747Z,61.66
2023-05-20T08:53:31.834Z,61.34
2023-05-20T08:56:04.003Z,61.03
2023-05-20T08:58:34.005Z,60.42
2023-05-20T09:01:04.411Z,60.45
2023-05-20T09:03:34.665Z,59.96
2023-05-20T09:06:08.798Z,60.09
2023-05-20T09:08:38.675Z,59.62
2023-05-20T09:11:11.122Z,59.45
2023-05-20T09:13:40.515Z,59.09
2023-05-20T09:16:12.370Z,58.36
2023-05-20T09:18:42.154Z,58.11
2023-05-20T09:21:12.101Z,57.21
2023-05-20T09:23:41.260Z,57.01
2023-05-20T09:26:11.537Z,56.00
2023-05-20T09:28:42.075Z,56.01
2023-05-20T09:31:15.395Z,55.35
2023-05-20T09:33:45.212Z,55.02
2023-05-20T09:36:16.775Z,55.00
2023-05-20T09:38:48.342Z,54.52
2023-05-20T09:41:18.645Z,53.96
2023-05-20T09:43:50.524Z,54.12
2023-05-20T09:46:21.095Z,54.23
2023-05-20T09:48:51.106Z,54.23
2023-05-20T09:51:24.298Z,53.92
2023-05-20T09:53:55.906Z,53.99
2023-05-20T09:56:26.776Z,52.68
2023-05-20T09:58:59.707Z,53.54
2023-05-20T10:01:30.097Z,53.15
2023-05-20T10:04:02.390Z,52.28
2023-05-20T10:06:59.538Z,52.49
2023-05-20T10:10:12.967Z,51.99
2023-05-20T10:12:49.363Z,52.75
2023-05-20T10:15:55.548Z,53.00
2023-05-20T10:18:28.173Z,53.96
2023-05-20T10:20:57.744Z,53.13
2023-05-20T10:23:31.910Z,53.47
2023-05-20T10:26:07.657Z,53.86
2023-05-20T10:28:38.706Z,53.70
2023-05-20T10:31:24.521Z,54.94
2023-05-20T10:33:54.844Z,55.76
2023-05-20T10:36:28.445Z,55.55
2023-05-20T10:38:59.888Z,56.30
2023-05-20T10:41:31.309Z,56.78
2023-05-20T10:44:07.681Z,58.40
2023-05-20T10:46:53.851Z,58.82
2023-05-20T10:49:34.299Z,58.34
2023-05-20T10:52:04.276Z,58.52
2023-05-20T10:54:38.075Z,58.66
2023-05-20T10:57:12.603Z,59.37
2023-05-20T10:59:43.954Z,59.53
2023-05-20T11:02:16.897Z,60.10
2023-05-20T11:04:48.375Z,60.26
2023-05-20T11:07:33.127Z,60.12
2023-05-20T11:10:02.680Z,59.67
2023-05-20T11:12:33.552Z,59.80
2023-05-20T11:15:03.709Z,59.96
2023-05-20T11:17:33.139Z,60.13
2023-05-20T11:20:03.325Z,60.16
2023-05-20T11:22:32.997Z,59.91
2023-05-20T11:25:07.991Z,60.00
2023-05-20T11:27:40.582Z,59.98
2023-05-20T11:30:11.625Z,59.91
2023-05-20T11:32:40.943Z,59.57
2023-05-20T11:35:24.542Z,59.08
2023-05-20T11:37:58.774Z,58.75
2023-05-20T11:40:35.728Z,58.47
2023-05-20T11:43:14.625Z,59.05
2023-05-20T11:45:46.509Z,58.87
2023-05-20T11:48:18.535Z,58.16
2023-05-20T11:50:49.603Z,58.17
2023-05-20T11:53:20.276Z,58.22
2023-05-20T11:55:57.758Z,58.42
2023-05-20T11:58:31.317Z,58.32
2023-05-20T12:01:13.518Z,58.16
2023-05-20T12:03:51.088Z,58.59
2023-05-20T12:06:22.880Z,58.48
2023-05-20T12:08:53.130Z,59.26
2023-05-20T12:11:23.000Z,59.15
2023-05-20T12:13:53.349Z,59.49
2023-05-20T12:16:24.003Z,60.51
2023-05-20T12:18:56.270Z,60.45
2023-05-20T12:21:27.594Z,60.78
2023-05-20T12:23:59.176Z,61.02
2023-05-20T12:26:30.464Z,61.27
2023-05-20T12:29:01.621Z,61.73
2023-05-20T12:31:35.401Z,62.16
2023-05-20T12:34:06.130Z,62.55
2023-05-20T12:36:36.659Z,63.16
2023-05-20T12:39:08.197Z,63.03
2023-05-20T12:41:39.198Z,62.63
2023-05-20T12:44:09.814Z,62.27
2023-05-20T12:46:39.580Z,61.69
2023-05-20T12:49:09.473Z,61.93
2023-05-20T12:51:40.061Z,62.08
2023-05-20T12:54:09.752Z,61.84
2023-05-20T12:56:41.295Z,60.81
2023-05-20T12:59:12.277Z,60.32
2023-05-20T13:01:43.606Z,61.18
2023-05-20T13:04:14.046Z,61.01
2023-05-20T13:06:45.522Z,60.78
2023-05-20T13:09:16.637Z,60.32
2023-05-20T13:11:48.649Z,59.79
2023-05-20T13:14:19.146Z,60.10
2023-05-20T13:16:56.159Z,60.15
2023-05-20T13:19:26.862Z,60.31
2023-05-20T13:21:57.345Z,59.62
2023-05-20T13:24:27.028Z,59.44
2023-05-20T13:26:59.303Z,60.01
2023-05-20T13:29:29.777Z,60.38
2023-05-20T13:32:02.372Z,61.16
2023-05-20T13:34:39.552Z,61.26
2023-05-20T13:37:09.500Z,61.09
2023-05-20T13:39:39.136Z,60.88
2023-05-20T13:42:08.403Z,61.47
2023-05-20T13:44:37.838Z,62.02
2023-05-20T13:47:07.424Z,59.25
2023-05-20T13:49:36.925Z,58.47
2023-05-20T13:52:08.234Z,57.86
2023-05-20T13:54:38.440Z,57.71
2023-05-20T13:57:08.785Z,57.17
2023-05-20T13:59:40.831Z,56.75
2023-05-20T14:02:11.691Z,56.55
2023-05-20T14:04:45.260Z,56.13
2023-05-20T14:07:14.846Z,56.03
2023-05-20T14:09:44.600Z,56.02
2023-05-20T14:12:14.395Z,56.84
2023-05-20T14:14:44.664Z,57.72
2023-05-20T14:17:15.524Z,58.22
2023-05-20T14:19:46.156Z,58.05
2023-05-20T14:22:16.789Z,57.60
2023-05-20T14:24:47.567Z,57.83
2023-05-20T14:27:17.857Z,57.96
2023-05-20T14:29:49.512Z,58.26
2023-05-20T14:32:20.201Z,57.87
2023-05-20T14:34:50.119Z,57.66
2023-05-20T14:37:20.989Z,58.14
2023-05-20T14:39:50.559Z,57.86
2023-05-20T14:42:20.722Z,57.72
2023-05-20T14:44:50.964Z,57.61
2023-05-20T14:47:22.586Z,57.79
2023-05-20T14:49:52.053Z,57.57
2023-05-20T14:52:21.130Z,57.35
2023-05-20T14:54:50.920Z,57.46
2023-05-20T14:57:21.297Z,57.57
2023-05-20T14:59:51.909Z,57.58
2023-05-20T15:02:21.376Z,57.77
2023-05-20T15:04:51.597Z,57.75
2023-05-20T15:07:20.743Z,57.56
2023-05-20T15:09:50.863Z,57.84
2023-05-20T15:12:20.055Z,58.21
2023-05-20T15:14:49.057Z,58.56
2023-05-20T15:17:19.265Z,58.73
2023-05-20T15:19:48.591Z,58.70
2023-05-20T15:22:18.646Z,59.23
2023-05-20T15:24:48.045Z,59.68
2023-05-20T15:27:17.666Z,60.12
2023-05-20T15:29:47.218Z,60.70
2023-05-20T15:32:17.037Z,60.65
2023-05-20T15:34:46.953Z,60.94
2023-05-20T15:37:17.552Z,61.26
2023-05-20T15:39:47.357Z,61.51
2023-05-20T15:42:19.150Z,61.38
2023-05-20T15:44:49.463Z,61.51
2023-05-20T15:47:18.877Z,61.68
2023-05-20T15:49:48.662Z,62.00
2023-05-20T15:52:17.728Z,62.17
2023-05-20T15:54:46.933Z,62.13
2023-05-20T15:57:16.567Z,62.44
2023-05-20T15:59:46.234Z,62.72
2023-05-20T16:02:16.130Z,63.23
2023-05-20T16:04:45.835Z,63.19
2023-05-20T16:07:16.437Z,63.07
2023-05-20T16:09:46.629Z,63.46
2023-05-20T16:12:18.287Z,63.79
2023-05-20T16:14:48.577Z,63.74
2023-05-20T16:17:21.577Z,63.61
2023-05-20T16:19:51.126Z,64.06
2023-05-20T16:22:20.327Z,64.64
2023-05-20T16:24:49.596Z,65.66
2023-05-20T16:27:19.333Z,66.19
2023-05-20T16:29:51.181Z,66.66
2023-05-20T16:32:23.618Z,66.79
2023-05-20T16:34:53.068Z,67.02
2023-05-20T16:37:22.724Z,66.83
2023-05-20T16:39:52.232Z,66.62
2023-05-20T16:42:21.583Z,66.63
2023-05-20T16:44:52.157Z,66.26
2023-05-20T16:47:21.538Z,66.38
2023-05-20T16:49:50.568Z,66.50
2023-05-20T16:52:20.703Z,67.01
2023-05-20T16:54:52.497Z,66.85
2023-05-20T16:57:21.986Z,67.08
2023-05-20T16:59:52.810Z,67.56
2023-05-20T17:02:22.264Z,67.93
2023-05-20T17:04:52.694Z,67.53
2023-05-20T17:07:22.754Z,67.18
2023-05-20T17:09:53.006Z,67.12
2023-05-20T17:12:22.593Z,67.61
2023-05-20T17:14:51.858Z,67.98
2023-05-20T17:17:21.951Z,68.19
2023-05-20T17:19:51.358Z,67.57
2023-05-20T17:22:20.522Z,67.22
2023-05-20T17:24:50.565Z,67.57
2023-05-20T17:27:20.022Z,67.35
2023-05-20T17:29:49.676Z,66.98
2023-05-20T17:32:19.102Z,66.86
2023-05-20T17:34:48.803Z,66.86
2023-05-20T17:37:18.618Z,67.03
2023-05-20T17:39:48.197Z,67.04
2023-05-20T17:42:17.317Z,67.29
2023-05-20T17:44:47.556Z,67.33
2023-05-20T17:47:16.858Z,67.81
2023-05-20T17:49:47.063Z,67.66
2023-05-20T17:52:17.502Z,67.56
2023-05-20T17:54:47.304Z,67.54
2023-05-20T17:57:17.028Z,67.91
2023-05-20T17:59:47.188Z,68.06
2023-05-20T18:02:16.343Z,68.20
2023-05-20T18:04:45.232Z,68.22
2023-05-20T18:07:14.884Z,68.34
2023-05-20T18:09:44.441Z,68.75
2023-05-20T18:12:14.611Z,68.78
2023-05-20T18:14:44.367Z,68.67
2023-05-20T18:17:14.281Z,68.69
2023-05-20T18:19:43.866Z,68.96
2023-05-20T18:22:12.945Z,69.46
2023-05-20T18:24:42.655Z,69.44
2023-05-20T18:27:11.834Z,69.06
2023-05-20T18:29:41.619Z,68.80
2023-05-20T18:32:12.165Z,69.00
2023-05-20T18:34:41.865Z,69.10
2023-05-20T18:37:12.059Z,69.06
2023-05-20T18:39:42.009Z,69.09
2023-05-20T18:42:11.827Z,69.11
2023-05-20T18:44:42.211Z,69.63
2023-05-20T18:47:12.179Z,69.96
2023-05-20T18:49:41.412Z,70.00
2023-05-20T18:52:11.990Z,69.94
2023-05-20T18:54:41.931Z,70.13
2023-05-20T18:57:12.735Z,70.55
2023-05-20T18:59:42.427Z,70.23
2023-05-20T19:02:12.266Z,69.88
2023-05-20T19:04:41.282Z,69.38
2023-05-20T19:07:12.427Z,68.55
2023-05-20T19:09:41.489Z,68.01
2023-05-20T19:12:10.823Z,67.09
2023-05-20T19:14:40.029Z,66.55
2023-05-20T19:17:09.174Z,66.22
2023-05-20T19:19:39.156Z,66.29
2023-05-20T19:22:09.108Z,66.40
2023-05-20T19:24:39.185Z,65.82
2023-05-20T19:27:08.577Z,65.35
2023-05-20T19:29:37.732Z,65.42
2023-05-20T19:32:07.497Z,65.36
2023-05-20T19:34:37.250Z,65.69
2023-05-20T19:37:07.006Z,65.29
2023-05-20T19:39:37.603Z,64.88
2023-05-20T19:42:07.617Z,65.39
2023-05-20T19:44:37.338Z,65.66
2023-05-20T19:47:09.190Z,65.48
2023-05-20T19:49:39.734Z,65.60
2023-05-20T19:52:10.508Z,65.74
2023-05-20T19:54:43.871Z,66.47
2023-05-20T19:57:14.021Z,66.78
2023-05-20T19:59:44.138Z,66.73
2023-05-20T20:02:15.654Z,66.60
2023-05-20T20:04:47.141Z,66.77
2023-05-20T20:07:17.847Z,66.60
2023-05-20T20:09:49.094Z,66.74
2023-05-20T20:12:19.477Z,67.05
2023-05-20T20:14:49.056Z,66.70
2023-05-20T20:17:21.277Z,66.60
2023-05-20T20:19:55.884Z,66.64
2023-05-20T20:22:25.200Z,66.43
2023-05-20T20:24:54.837Z,66.65
2023-05-20T20:27:24.352Z,66.71
2023-05-20T20:29:54.804Z,66.08
2023-05-20T20:32:25.394Z,65.72
2023-05-20T20:34:55.555Z,65.98
2023-05-20T20:37:27.379Z,66.65
2023-05-20T20:39:57.565Z,67.42
2023-05-20T20:42:28.637Z,67.66
2023-05-20T20:44:58.000Z,67.27
2023-05-20T20:47:29.839Z,67.28
2023-05-20T20:50:00.132Z,67.67
2023-05-20T20:52:30.566Z,67.70
2023-05-20T20:55:00.475Z,67.36
2023-05-20T20:57:30.212Z,67.41
2023-05-20T20:59:59.781Z,67.97
2023-05-20T21:02:29.009Z,68.13
2023-05-20T21:04:59.646Z,68.27
2023-05-20T21:07:30.668Z,68.63
2023-05-20T21:10:00.026Z,69.19
2023-05-20T21:12:29.164Z,69.40
2023-05-20T21:14:58.480Z,69.43
2023-05-20T21:17:32.559Z,69.48
2023-05-20T21:20:02.375Z,70.08
2023-05-20T21:22:32.905Z,70.45
2023-05-20T21:25:02.528Z,70.85
2023-05-20T21:27:32.040Z,70.60
2023-05-20T21:30:01.773Z,70.68
2023-05-20T21:32:31.058Z,71.33
2023-05-20T21:35:00.206Z,71.83
2023-05-20T21:37:30.071Z,71.76
2023-05-20T21:39:59.232Z,71.57
2023-05-20T21:42:29.641Z,71.53
2023-05-20T21:44:58.826Z,71.69
2023-05-20T21:47:28.285Z,71.88
2023-05-20T21:49:57.658Z,71.67
2023-05-20T21:52:27.734Z,71.55
2023-05-20T21:54:57.695Z,71.87
2023-05-20T21:57:28.616Z,71.92
2023-05-20T21:59:59.754Z,72.03
2023-05-20T22:02:28.987Z,71.87
2023-05-20T22:05:01.308Z,72.03
2023-05-20T22:07:31.500Z,72.01
2023-05-20T22:10:02.792Z,72.08
2023-05-20T22:12:32.424Z,71.99
2023-05-20T22:15:01.766Z,71.96
2023-05-20T22:17:35.000Z,71.77
2023-05-20T22:20:08.976Z,71.86
2023-05-20T22:22:41.868Z,71.58
2023-05-20T22:25:12.135Z,71.39
2023-05-20T22:27:44.392Z,71.67
2023-05-20T22:30:15.344Z,71.80
2023-05-20T22:32:45.802Z,72.11
2023-05-20T22:35:17.289Z,72.18
2023-05-20T22:37:47.460Z,72.58
2023-05-20T22:40:18.285Z,72.91
2023-05-20T22:42:47.458Z,73.01
2023-05-20T22:45:17.499Z,72.99
2023-05-20T22:47:47.511Z,72.78
2023-05-20T22:50:17.172Z,72.89
2023-05-20T22:52:47.551Z,72.79
2023-05-20T22:55:17.204Z,72.80
2023-05-20T22:57:46.909Z,72.88
2023-05-20T23:00:16.807Z,73.32
2023-05-20T23:02:50.488Z,73.53
2023-05-20T23:05:20.450Z,73.96
2023-05-20T23:07:52.394Z,74.02
2023-05-20T23:10:22.391Z,73.96
2023-05-20T23:12:52.209Z,74.16
2023-05-20T23:15:21.458Z,74.22
2023-05-20T23:17:52.153Z,74.28
2023-05-20T23:20:22.781Z,74.20
2023-05-20T23:22:52.221Z,74.01
2023-05-20T23:25:22.410Z,74.61
2023-05-20T23:27:52.074Z,74.56
2023-05-20T23:30:21.149Z,74.57
2023-05-20T23:32:52.169Z,74.30
2023-05-20T23:35:22.847Z,74.24
2023-05-20T23:37:52.985Z,74.51
2023-05-20T23:40:23.307Z,74.56
2023-05-20T23:42:52.513Z,74.43
2023-05-20T23:45:21.702Z,74.41
2023-05-20T23:47:51.281Z,74.72
2023-05-20T23:50:20.763Z,74.89
2023-05-20T23:52:50.151Z,74.93
2023-05-20T23:55:19.491Z,74.79
2023-05-20T23:57:48.609Z,74.93
